sensor_id;sensor_type;location;lat;lon;timestamp;pressure;altitude;pressure_sealevel;temperature;humidity
51617;BME280;37697;52.588;13.394;2023-03-13T00:04:26;100098.16;;;4.33;94.53
51617;BME280;37697;52.588;13.394;2023-03-13T00:09:31;100096.58;;;4.36;94.62
51617;BME280;37697;52.588;13.394;2023-03-13T00:14:37;100095.95;;;4.42;95.54
51617;BME280;37697;52.588;13.394;2023-03-13T00:19:42;100089.61;;;4.48;95.55
51617;BME280;37697;52.588;13.394;2023-03-13T00:24:48;100084.67;;;4.55;95.48
51617;BME280;37697;52.588;13.394;2023-03-13T00:29:53;100081.43;;;4.61;95.93
51617;BME280;37697;52.588;13.394;2023-03-13T00:34:58;100078.29;;;4.67;96.03
51617;BME280;37697;52.588;13.394;2023-03-13T00:40:05;100070.84;;;4.75;96.45
51617;BME280;37697;52.588;13.394;2023-03-13T00:45:12;100063.41;;;4.84;96.55
51617;BME280;37697;52.588;13.394;2023-03-13T00:50:18;100057.16;;;4.90;96.16
51617;BME280;37697;52.588;13.394;2023-03-13T00:55:23;100042.52;;;4.94;96.23
51617;BME280;37697;52.588;13.394;2023-03-13T01:00:29;100039.91;;;4.99;96.59
51617;BME280;37697;52.588;13.394;2023-03-13T01:05:34;100038.52;;;5.03;96.60
51617;BME280;37697;52.588;13.394;2023-03-13T01:10:39;100036.20;;;5.08;96.48
51617;BME280;37697;52.588;13.394;2023-03-13T01:15:44;100036.56;;;5.11;96.44
51617;BME280;37697;52.588;13.394;2023-03-13T01:20:50;100030.83;;;5.12;96.26
51617;BME280;37697;52.588;13.394;2023-03-13T01:25:56;100031.57;;;5.16;96.17
51617;BME280;37697;52.588;13.394;2023-03-13T01:31:10;100035.91;;;5.20;96.31
51617;BME280;37697;52.588;13.394;2023-03-13T01:36:16;100044.61;;;5.23;96.31
51617;BME280;37697;52.588;13.394;2023-03-13T01:41:23;100036.91;;;5.24;95.98
51617;BME280;37697;52.588;13.394;2023-03-13T01:46:30;100030.92;;;5.27;96.02
51617;BME280;37697;52.588;13.394;2023-03-13T01:51:38;100019.13;;;5.28;95.88
51617;BME280;37697;52.588;13.394;2023-03-13T01:56:48;100014.30;;;5.30;95.74
51617;BME280;37697;52.588;13.394;2023-03-13T02:01:58;100007.73;;;5.32;95.71
51617;BME280;37697;52.588;13.394;2023-03-13T02:07:07;100004.11;;;5.35;95.76
51617;BME280;37697;52.588;13.394;2023-03-13T02:12:16;99997.95;;;5.38;95.48
51617;BME280;37697;52.588;13.394;2023-03-13T02:17:22;99983.02;;;5.40;95.49
51617;BME280;37697;52.588;13.394;2023-03-13T02:22:32;99972.80;;;5.43;95.44
51617;BME280;37697;52.588;13.394;2023-03-13T02:27:43;99965.79;;;5.44;95.37
51617;BME280;37697;52.588;13.394;2023-03-13T02:32:49;99964.42;;;5.44;95.28
51617;BME280;37697;52.588;13.394;2023-03-13T02:37:59;99960.16;;;5.44;95.00
51617;BME280;37697;52.588;13.394;2023-03-13T02:43:08;99949.23;;;5.45;95.14
51617;BME280;37697;52.588;13.394;2023-03-13T02:48:15;99945.14;;;5.45;94.64
51617;BME280;37697;52.588;13.394;2023-03-13T02:53:20;99937.92;;;5.45;94.83
51617;BME280;37697;52.588;13.394;2023-03-13T02:58:26;99926.54;;;5.47;95.08
51617;BME280;37697;52.588;13.394;2023-03-13T03:03:31;99915.73;;;5.53;95.18
51617;BME280;37697;52.588;13.394;2023-03-13T03:08:37;99915.53;;;5.56;94.89
51617;BME280;37697;52.588;13.394;2023-03-13T03:13:46;99910.94;;;5.61;94.87
51617;BME280;37697;52.588;13.394;2023-03-13T03:18:52;99898.83;;;5.64;95.05
51617;BME280;37697;52.588;13.394;2023-03-13T03:23:57;99894.90;;;5.68;94.77
51617;BME280;37697;52.588;13.394;2023-03-13T03:29:03;99889.45;;;5.73;94.71
51617;BME280;37697;52.588;13.394;2023-03-13T03:34:09;99888.89;;;5.77;94.94
51617;BME280;37697;52.588;13.394;2023-03-13T03:39:15;99885.84;;;5.82;94.68
51617;BME280;37697;52.588;13.394;2023-03-13T03:44:20;99881.55;;;5.87;94.85
51617;BME280;37697;52.588;13.394;2023-03-13T03:49:25;99874.27;;;5.89;95.01
51617;BME280;37697;52.588;13.394;2023-03-13T03:54:31;99871.12;;;5.92;94.95
51617;BME280;37697;52.588;13.394;2023-03-13T03:59:36;99864.16;;;5.93;95.05
51617;BME280;37697;52.588;13.394;2023-03-13T04:04:42;99851.89;;;5.95;94.99
51617;BME280;37697;52.588;13.394;2023-03-13T04:09:48;99842.50;;;5.95;94.96
51617;BME280;37697;52.588;13.394;2023-03-13T04:14:53;99831.17;;;5.96;94.94
51617;BME280;37697;52.588;13.394;2023-03-13T04:19:58;99830.34;;;5.98;95.09
51617;BME280;37697;52.588;13.394;2023-03-13T04:25:05;99818.27;;;6.00;95.10
51617;BME280;37697;52.588;13.394;2023-03-13T04:30:13;99809.96;;;6.02;95.10
51617;BME280;37697;52.588;13.394;2023-03-13T04:35:19;99799.44;;;6.03;95.08
51617;BME280;37697;52.588;13.394;2023-03-13T04:40:25;99788.95;;;6.06;95.22
51617;BME280;37697;52.588;13.394;2023-03-13T04:45:30;99780.36;;;6.06;95.28
51617;BME280;37697;52.588;13.394;2023-03-13T04:50:36;99774.59;;;6.08;95.12
51617;BME280;37697;52.588;13.394;2023-03-13T04:55:42;99763.66;;;6.08;95.10
51617;BME280;37697;52.588;13.394;2023-03-13T05:00:47;99753.98;;;6.08;95.69
51617;BME280;37697;52.588;13.394;2023-03-13T05:05:53;99742.55;;;6.09;95.34
51617;BME280;37697;52.588;13.394;2023-03-13T05:10:58;99727.83;;;6.10;95.62
51617;BME280;37697;52.588;13.394;2023-03-13T05:16:05;99718.00;;;6.12;95.68
51617;BME280;37697;52.588;13.394;2023-03-13T05:21:11;99701.02;;;6.14;95.47
51617;BME280;37697;52.588;13.394;2023-03-13T05:26:17;99699.63;;;6.16;95.52
51617;BME280;37697;52.588;13.394;2023-03-13T05:31:22;99695.17;;;6.20;95.71
51617;BME280;37697;52.588;13.394;2023-03-13T05:36:28;99687.94;;;6.21;95.63
51617;BME280;37697;52.588;13.394;2023-03-13T05:41:33;99675.02;;;6.22;95.97
51617;BME280;37697;52.588;13.394;2023-03-13T05:46:39;99661.26;;;6.24;96.28
51617;BME280;37697;52.588;13.394;2023-03-13T05:51:44;99653.67;;;6.27;96.41
51617;BME280;37697;52.588;13.394;2023-03-13T05:56:49;99644.42;;;6.29;96.92
51617;BME280;37697;52.588;13.394;2023-03-13T06:01:56;99633.52;;;6.31;96.81
51617;BME280;37697;52.588;13.394;2023-03-13T06:07:01;99622.24;;;6.32;96.83
51617;BME280;37697;52.588;13.394;2023-03-13T06:12:08;99615.05;;;6.33;97.02
51617;BME280;37697;52.588;13.394;2023-03-13T06:17:14;99613.91;;;6.35;97.22
51617;BME280;37697;52.588;13.394;2023-03-13T06:22:19;99605.47;;;6.36;97.26
51617;BME280;37697;52.588;13.394;2023-03-13T06:27:24;99592.67;;;6.39;97.11
51617;BME280;37697;52.588;13.394;2023-03-13T06:32:30;99585.75;;;6.41;97.37
51617;BME280;37697;52.588;13.394;2023-03-13T06:37:36;99572.21;;;6.42;97.33
51617;BME280;37697;52.588;13.394;2023-03-13T06:42:42;99556.85;;;6.42;97.42
51617;BME280;37697;52.588;13.394;2023-03-13T06:47:47;99547.79;;;6.44;97.38
51617;BME280;37697;52.588;13.394;2023-03-13T06:52:55;99530.37;;;6.47;97.44
51617;BME280;37697;52.588;13.394;2023-03-13T06:58:01;99517.48;;;6.50;97.67
51617;BME280;37697;52.588;13.394;2023-03-13T07:03:06;99502.23;;;6.53;97.57
51617;BME280;37697;52.588;13.394;2023-03-13T07:08:12;99500.65;;;6.57;97.59
51617;BME280;37697;52.588;13.394;2023-03-13T07:13:17;99500.42;;;6.59;97.83
51617;BME280;37697;52.588;13.394;2023-03-13T07:18:24;99498.88;;;6.62;98.10
51617;BME280;37697;52.588;13.394;2023-03-13T07:23:29;99502.81;;;6.65;98.01
51617;BME280;37697;52.588;13.394;2023-03-13T07:28:35;99484.73;;;6.69;97.92
51617;BME280;37697;52.588;13.394;2023-03-13T07:33:42;99487.20;;;6.71;98.34
51617;BME280;37697;52.588;13.394;2023-03-13T07:38:49;99479.74;;;6.72;98.84
51617;BME280;37697;52.588;13.394;2023-03-13T07:43:55;99472.48;;;6.78;98.98
51617;BME280;37697;52.588;13.394;2023-03-13T07:49:00;99462.45;;;6.83;99.02
51617;BME280;37697;52.588;13.394;2023-03-13T07:54:06;99447.52;;;6.90;99.41
51617;BME280;37697;52.588;13.394;2023-03-13T07:59:11;99442.44;;;6.97;99.62
51617;BME280;37697;52.588;13.394;2023-03-13T08:04:17;99432.16;;;7.02;99.72
51617;BME280;37697;52.588;13.394;2023-03-13T08:09:22;99426.49;;;7.09;99.79
51617;BME280;37697;52.588;13.394;2023-03-13T08:14:29;99417.27;;;7.14;100.00
51617;BME280;37697;52.588;13.394;2023-03-13T08:19:34;99418.79;;;7.19;100.00
51617;BME280;37697;52.588;13.394;2023-03-13T08:24:40;99405.08;;;7.22;100.00
51617;BME280;37697;52.588;13.394;2023-03-13T08:29:45;99394.23;;;7.24;100.00
51617;BME280;37697;52.588;13.394;2023-03-13T08:34:50;99384.62;;;7.27;100.00
51617;BME280;37697;52.588;13.394;2023-03-13T08:39:56;99384.40;;;7.29;100.00
51617;BME280;37697;52.588;13.394;2023-03-13T08:45:02;99372.00;;;7.30;100.00
51617;BME280;37697;52.588;13.394;2023-03-13T08:50:09;99376.52;;;7.31;100.00
51617;BME280;37697;52.588;13.394;2023-03-13T08:55:15;99368.53;;;7.32;100.00
51617;BME280;37697;52.588;13.394;2023-03-13T09:00:21;99357.81;;;7.34;100.00
51617;BME280;37697;52.588;13.394;2023-03-13T09:05:27;99347.16;;;7.37;100.00
51617;BME280;37697;52.588;13.394;2023-03-13T09:10:34;99336.45;;;7.42;100.00
51617;BME280;37697;52.588;13.394;2023-03-13T09:15:40;99333.77;;;7.50;100.00
51617;BME280;37697;52.588;13.394;2023-03-13T09:20:45;99321.55;;;7.58;100.00
51617;BME280;37697;52.588;13.394;2023-03-13T09:25:55;99325.48;;;7.66;100.00
51617;BME280;37697;52.588;13.394;2023-03-13T09:31:08;99327.65;;;7.72;100.00
51617;BME280;37697;52.588;13.394;2023-03-13T09:36:14;99323.47;;;7.78;100.00
51617;BME280;37697;52.588;13.394;2023-03-13T09:41:28;99327.29;;;7.83;100.00
51617;BME280;37697;52.588;13.394;2023-03-13T09:46:41;99323.48;;;7.85;100.00
51617;BME280;37697;52.588;13.394;2023-03-13T09:51:52;99320.23;;;7.90;100.00
51617;BME280;37697;52.588;13.394;2023-03-13T09:57:06;99308.13;;;7.95;100.00
51617;BME280;37697;52.588;13.394;2023-03-13T10:02:24;99298.13;;;8.01;100.00
51617;BME280;37697;52.588;13.394;2023-03-13T10:07:31;99296.05;;;8.07;100.00
51617;BME280;37697;52.588;13.394;2023-03-13T10:12:40;99297.27;;;8.15;100.00
51617;BME280;37697;52.588;13.394;2023-03-13T10:17:48;99298.34;;;8.24;100.00
51617;BME280;37697;52.588;13.394;2023-03-13T10:22:56;99291.14;;;8.35;100.00
51617;BME280;37697;52.588;13.394;2023-03-13T10:28:07;99283.12;;;8.43;100.00
51617;BME280;37697;52.588;13.394;2023-03-13T10:33:21;99284.30;;;8.59;100.00
51617;BME280;37697;52.588;13.394;2023-03-13T10:38:26;99263.60;;;8.76;100.00
51617;BME280;37697;52.588;13.394;2023-03-13T10:43:32;99266.86;;;8.90;100.00
51617;BME280;37697;52.588;13.394;2023-03-13T10:48:37;99263.84;;;9.12;100.00
51617;BME280;37697;52.588;13.394;2023-03-13T10:53:43;99248.20;;;9.42;100.00
51617;BME280;37697;52.588;13.394;2023-03-13T10:58:50;99252.10;;;9.64;100.00
51617;BME280;37697;52.588;13.394;2023-03-13T11:03:57;99238.35;;;9.84;100.00
51617;BME280;37697;52.588;13.394;2023-03-13T11:09:12;99232.14;;;10.05;100.00
51617;BME280;37697;52.588;13.394;2023-03-13T11:14:19;99228.69;;;10.35;100.00
51617;BME280;37697;52.588;13.394;2023-03-13T11:19:31;99228.02;;;10.72;100.00
51617;BME280;37697;52.588;13.394;2023-03-13T11:24:43;99222.91;;;10.96;99.91
51617;BME280;37697;52.588;13.394;2023-03-13T11:29:59;99218.94;;;11.09;98.80
51617;BME280;37697;52.588;13.394;2023-03-13T11:35:16;99216.70;;;11.17;98.37
51617;BME280;37697;52.588;13.394;2023-03-13T11:40:26;99211.23;;;11.26;97.38
51617;BME280;37697;52.588;13.394;2023-03-13T11:45:49;99206.48;;;11.36;96.74
51617;BME280;37697;52.588;13.394;2023-03-13T11:51:06;99205.11;;;11.45;96.40
51617;BME280;37697;52.588;13.394;2023-03-13T11:56:21;99196.30;;;11.53;95.88
51617;BME280;37697;52.588;13.394;2023-03-13T12:01:33;99200.05;;;11.62;95.92
51617;BME280;37697;52.588;13.394;2023-03-13T12:06:42;99198.98;;;11.74;94.96
51617;BME280;37697;52.588;13.394;2023-03-13T12:11:54;99189.90;;;11.84;94.90
51617;BME280;37697;52.588;13.394;2023-03-13T12:17:11;99188.30;;;12.09;95.07
51617;BME280;37697;52.588;13.394;2023-03-13T12:22:23;99175.54;;;12.33;93.25
51617;BME280;37697;52.588;13.394;2023-03-13T12:27:32;99178.08;;;12.40;92.41
51617;BME280;37697;52.588;13.394;2023-03-13T12:32:42;99170.58;;;12.45;91.81
51617;BME280;37697;52.588;13.394;2023-03-13T12:37:54;99165.27;;;12.45;91.23
51617;BME280;37697;52.588;13.394;2023-03-13T12:43:09;99159.84;;;12.57;91.23
51617;BME280;37697;52.588;13.394;2023-03-13T12:48:38;99158.52;;;12.67;91.15
51617;BME280;37697;52.588;13.394;2023-03-13T12:54:01;99148.09;;;12.96;89.56
51617;BME280;37697;52.588;13.394;2023-03-13T12:59:13;99139.52;;;13.38;89.27
51617;BME280;37697;52.588;13.394;2023-03-13T13:04:22;99143.73;;;13.75;87.58
51617;BME280;37697;52.588;13.394;2023-03-13T13:09:30;99137.23;;;14.01;86.00
51617;BME280;37697;52.588;13.394;2023-03-13T13:14:57;99128.02;;;14.03;86.34
51617;BME280;37697;52.588;13.394;2023-03-13T13:20:33;99118.70;;;14.30;86.16
51617;BME280;37697;52.588;13.394;2023-03-13T13:25:39;99121.11;;;14.54;85.12
51617;BME280;37697;52.588;13.394;2023-03-13T13:30:45;99112.44;;;14.68;82.66
51617;BME280;37697;52.588;13.394;2023-03-13T13:36:24;99109.80;;;14.72;83.37
51617;BME280;37697;52.588;13.394;2023-03-13T13:41:37;99105.64;;;14.83;83.02
51617;BME280;37697;52.588;13.394;2023-03-13T13:46:45;99097.02;;;14.90;82.61
51617;BME280;37697;52.588;13.394;2023-03-13T13:57:42;99104.75;;;14.87;80.93
51617;BME280;37697;52.588;13.394;2023-03-13T14:02:51;99108.31;;;14.83;79.46
51617;BME280;37697;52.588;13.394;2023-03-13T14:08:02;99100.24;;;14.83;79.60
51617;BME280;37697;52.588;13.394;2023-03-13T14:13:16;99097.23;;;14.93;79.51
51617;BME280;37697;52.588;13.394;2023-03-13T14:18:25;99097.98;;;14.91;78.60
51617;BME280;37697;52.588;13.394;2023-03-13T14:23:36;99096.29;;;15.04;77.98
51617;BME280;37697;52.588;13.394;2023-03-13T14:28:48;99095.91;;;15.09;76.21
51617;BME280;37697;52.588;13.394;2023-03-13T14:33:56;99091.09;;;15.06;76.09
51617;BME280;37697;52.588;13.394;2023-03-13T14:39:02;99083.73;;;14.96;76.56
51617;BME280;37697;52.588;13.394;2023-03-13T14:44:15;99078.46;;;14.93;76.41
51617;BME280;37697;52.588;13.394;2023-03-13T14:49:26;99073.47;;;15.04;76.55
51617;BME280;37697;52.588;13.394;2023-03-13T14:54:36;99065.30;;;15.08;76.85
51617;BME280;37697;52.588;13.394;2023-03-13T14:59:42;99067.75;;;15.08;76.50
51617;BME280;37697;52.588;13.394;2023-03-13T15:04:58;99057.48;;;15.21;76.35
51617;BME280;37697;52.588;13.394;2023-03-13T15:10:20;99043.93;;;15.22;76.25
51617;BME280;37697;52.588;13.394;2023-03-13T15:15:26;99043.17;;;15.23;76.18
51617;BME280;37697;52.588;13.394;2023-03-13T15:20:31;99039.27;;;15.28;74.80
51617;BME280;37697;52.588;13.394;2023-03-13T15:25:37;99032.08;;;15.18;74.18
51617;BME280;37697;52.588;13.394;2023-03-13T15:30:45;99023.81;;;15.09;74.05
51617;BME280;37697;52.588;13.394;2023-03-13T15:35:52;99022.83;;;14.95;74.52
51617;BME280;37697;52.588;13.394;2023-03-13T15:40:58;99014.61;;;14.85;74.05
51617;BME280;37697;52.588;13.394;2023-03-13T15:46:05;99010.64;;;14.73;73.93
51617;BME280;37697;52.588;13.394;2023-03-13T15:51:13;98996.32;;;14.63;74.35
51617;BME280;37697;52.588;13.394;2023-03-13T15:56:21;98989.80;;;14.57;74.59
51617;BME280;37697;52.588;13.394;2023-03-13T16:01:30;98988.08;;;14.54;74.88
51617;BME280;37697;52.588;13.394;2023-03-13T16:06:35;98976.25;;;14.52;75.24
51617;BME280;37697;52.588;13.394;2023-03-13T16:11:41;98979.38;;;14.50;74.91
51617;BME280;37697;52.588;13.394;2023-03-13T16:16:47;98974.09;;;14.51;75.24
51617;BME280;37697;52.588;13.394;2023-03-13T16:21:54;98965.43;;;14.48;75.10
51617;BME280;37697;52.588;13.394;2023-03-13T16:27:00;98950.98;;;14.46;75.35
51617;BME280;37697;52.588;13.394;2023-03-13T16:32:07;98947.69;;;14.41;75.56
51617;BME280;37697;52.588;13.394;2023-03-13T16:37:15;98939.98;;;14.34;75.83
51617;BME280;37697;52.588;13.394;2023-03-13T16:42:21;98927.58;;;14.29;76.02
51617;BME280;37697;52.588;13.394;2023-03-13T16:47:28;98924.86;;;14.23;76.36
51617;BME280;37697;52.588;13.394;2023-03-13T16:52:35;98920.91;;;14.18;76.30
51617;BME280;37697;52.588;13.394;2023-03-13T16:57:40;98913.90;;;14.15;76.45
51617;BME280;37697;52.588;13.394;2023-03-13T17:02:46;98915.41;;;14.10;76.79
51617;BME280;37697;52.588;13.394;2023-03-13T17:07:51;98901.30;;;14.08;76.85
51617;BME280;37697;52.588;13.394;2023-03-13T17:12:57;98896.34;;;14.05;76.88
51617;BME280;37697;52.588;13.394;2023-03-13T17:18:03;98900.09;;;14.01;76.95
51617;BME280;37697;52.588;13.394;2023-03-13T17:23:10;98896.77;;;13.97;77.01
51617;BME280;37697;52.588;13.394;2023-03-13T17:28:15;98890.88;;;13.89;77.05
51617;BME280;37697;52.588;13.394;2023-03-13T17:33:21;98904.83;;;13.87;77.24
51617;BME280;37697;52.588;13.394;2023-03-13T17:38:26;98903.02;;;13.82;77.30
51617;BME280;37697;52.588;13.394;2023-03-13T17:43:32;98901.63;;;13.75;77.39
51617;BME280;37697;52.588;13.394;2023-03-13T17:48:37;98914.21;;;13.67;77.59
51617;BME280;37697;52.588;13.394;2023-03-13T17:53:43;98907.21;;;13.59;77.72
51617;BME280;37697;52.588;13.394;2023-03-13T17:58:49;98897.30;;;13.53;77.66
51617;BME280;37697;52.588;13.394;2023-03-13T18:03:55;98901.23;;;13.48;77.92
51617;BME280;37697;52.588;13.394;2023-03-13T18:09:02;98894.09;;;13.42;78.11
51617;BME280;37697;52.588;13.394;2023-03-13T18:14:12;98882.83;;;13.35;78.20
51617;BME280;37697;52.588;13.394;2023-03-13T18:19:20;98892.48;;;13.32;78.41
51617;BME280;37697;52.588;13.394;2023-03-13T18:24:27;98879.59;;;13.31;78.45
51617;BME280;37697;52.588;13.394;2023-03-13T18:29:32;98879.80;;;13.26;78.52
51617;BME280;37697;52.588;13.394;2023-03-13T18:34:38;98873.39;;;13.21;78.71
51617;BME280;37697;52.588;13.394;2023-03-13T18:39:43;98876.00;;;13.21;78.90
51617;BME280;37697;52.588;13.394;2023-03-13T18:44:48;98870.98;;;13.19;78.79
51617;BME280;37697;52.588;13.394;2023-03-13T18:49:54;98854.89;;;13.15;78.97
51617;BME280;37697;52.588;13.394;2023-03-13T18:54:59;98846.58;;;13.15;79.15
51617;BME280;37697;52.588;13.394;2023-03-13T19:00:15;98850.90;;;13.13;79.46
51617;BME280;37697;52.588;13.394;2023-03-13T19:05:21;98855.00;;;13.13;79.50
51617;BME280;37697;52.588;13.394;2023-03-13T19:10:29;98852.06;;;13.17;79.46
51617;BME280;37697;52.588;13.394;2023-03-13T19:15:36;98841.92;;;13.19;79.35
51617;BME280;37697;52.588;13.394;2023-03-13T19:20:42;98834.32;;;13.18;79.40
51617;BME280;37697;52.588;13.394;2023-03-13T19:25:47;98814.90;;;13.18;79.42
51617;BME280;37697;52.588;13.394;2023-03-13T19:30:52;98816.20;;;13.16;79.38
51617;BME280;37697;52.588;13.394;2023-03-13T19:35:58;98832.80;;;13.13;79.33
51617;BME280;37697;52.588;13.394;2023-03-13T19:41:05;98829.63;;;13.12;79.47
51617;BME280;37697;52.588;13.394;2023-03-13T19:46:23;98823.60;;;13.11;79.26
51617;BME280;37697;52.588;13.394;2023-03-13T19:51:30;98814.40;;;13.08;79.45
51617;BME280;37697;52.588;13.394;2023-03-13T19:56:36;98819.58;;;13.02;79.47
51617;BME280;37697;52.588;13.394;2023-03-13T20:01:44;98815.86;;;12.98;79.44
51617;BME280;37697;52.588;13.394;2023-03-13T20:06:49;98819.52;;;12.95;79.68
51617;BME280;37697;52.588;13.394;2023-03-13T20:11:54;98820.91;;;12.88;79.74
51617;BME280;37697;52.588;13.394;2023-03-13T20:17:00;98811.27;;;12.84;79.82
51617;BME280;37697;52.588;13.394;2023-03-13T20:22:07;98802.71;;;12.79;80.05
51617;BME280;37697;52.588;13.394;2023-03-13T20:27:14;98793.77;;;12.77;80.22
51617;BME280;37697;52.588;13.394;2023-03-13T20:32:19;98790.48;;;12.74;80.10
51617;BME280;37697;52.588;13.394;2023-03-13T20:37:25;98786.04;;;12.69;80.45
51617;BME280;37697;52.588;13.394;2023-03-13T20:42:30;98774.87;;;12.67;80.53
51617;BME280;37697;52.588;13.394;2023-03-13T20:47:36;98763.60;;;12.63;80.55
51617;BME280;37697;52.588;13.394;2023-03-13T20:52:42;98763.96;;;12.61;80.56
51617;BME280;37697;52.588;13.394;2023-03-13T20:57:47;98764.67;;;12.62;80.97
51617;BME280;37697;52.588;13.394;2023-03-13T21:02:53;98776.02;;;12.60;80.92
51617;BME280;37697;52.588;13.394;2023-03-13T21:07:58;98774.55;;;12.59;80.89
51617;BME280;37697;52.588;13.394;2023-03-13T21:13:04;98771.44;;;12.57;80.88
51617;BME280;37697;52.588;13.394;2023-03-13T21:18:10;98772.11;;;12.55;80.69
51617;BME280;37697;52.588;13.394;2023-03-13T21:23:15;98765.71;;;12.55;80.88
51617;BME280;37697;52.588;13.394;2023-03-13T21:28:20;98767.02;;;12.53;80.75
51617;BME280;37697;52.588;13.394;2023-03-13T21:33:26;98780.39;;;12.50;80.47
51617;BME280;37697;52.588;13.394;2023-03-13T21:43:37;98796.92;;;12.45;80.26
51617;BME280;37697;52.588;13.394;2023-03-13T21:48:45;98795.52;;;12.42;80.24
51617;BME280;37697;52.588;13.394;2023-03-13T21:53:55;98784.05;;;12.40;80.15
51617;BME280;37697;52.588;13.394;2023-03-13T21:59:00;98774.74;;;12.36;80.00
51617;BME280;37697;52.588;13.394;2023-03-13T22:04:06;98763.23;;;12.33;79.89
51617;BME280;37697;52.588;13.394;2023-03-13T22:09:11;98758.80;;;12.28;79.76
51617;BME280;37697;52.588;13.394;2023-03-13T22:14:17;98763.80;;;12.26;79.83
51617;BME280;37697;52.588;13.394;2023-03-13T22:19:25;98767.78;;;12.23;79.69
51617;BME280;37697;52.588;13.394;2023-03-13T22:24:30;98768.05;;;12.25;79.74
51617;BME280;37697;52.588;13.394;2023-03-13T22:29:36;98765.28;;;12.25;79.54
51617;BME280;37697;52.588;13.394;2023-03-13T22:34:41;98762.07;;;12.22;79.57
51617;BME280;37697;52.588;13.394;2023-03-13T22:39:49;98757.02;;;12.22;79.57
51617;BME280;37697;52.588;13.394;2023-03-13T22:44:58;98758.88;;;12.21;79.49
51617;BME280;37697;52.588;13.394;2023-03-13T22:50:04;98747.94;;;12.18;79.31
51617;BME280;37697;52.588;13.394;2023-03-13T22:55:09;98748.10;;;12.14;79.49
51617;BME280;37697;52.588;13.394;2023-03-13T23:05:22;98734.84;;;12.09;79.39
51617;BME280;37697;52.588;13.394;2023-03-13T23:10:28;98732.26;;;12.06;79.58
51617;BME280;37697;52.588;13.394;2023-03-13T23:15:33;98736.67;;;12.03;79.51
51617;BME280;37697;52.588;13.394;2023-03-13T23:21:02;98744.66;;;12.01;79.55
51617;BME280;37697;52.588;13.394;2023-03-13T23:26:10;98738.63;;;11.99;79.40
51617;BME280;37697;52.588;13.394;2023-03-13T23:31:17;98718.36;;;11.94;79.47
51617;BME280;37697;52.588;13.394;2023-03-13T23:36:23;98709.05;;;11.91;79.40
51617;BME280;37697;52.588;13.394;2023-03-13T23:41:29;98716.48;;;11.89;79.52
51617;BME280;37697;52.588;13.394;2023-03-13T23:46:34;98707.30;;;11.83;79.14
51617;BME280;37697;52.588;13.394;2023-03-13T23:51:41;98701.33;;;11.80;79.09
51617;BME280;37697;52.588;13.394;2023-03-13T23:56:47;98705.21;;;11.74;79.18
